sensor_id;sensor_type;location;lat;lon;timestamp;pressure;altitude;pressure_sealevel;temperature;humidity
54806;BME280;62866;55.776;37.496;2023-05-22T00:00:35;100517.94;;;11.98;75.95
54806;BME280;62866;55.776;37.496;2023-05-22T00:03:01;100512.41;;;11.99;76.38
54806;BME280;62866;55.776;37.496;2023-05-22T00:05:31;100500.84;;;11.99;76.67
54806;BME280;62866;55.776;37.496;2023-05-22T00:07:58;100499.09;;;12.06;76.70
54806;BME280;62866;55.776;37.496;2023-05-22T00:10:24;100502.81;;;12.05;76.32
54806;BME280;62866;55.776;37.496;2023-05-22T00:12:49;100511.59;;;12.13;75.62
54806;BME280;62866;55.776;37.496;2023-05-22T00:15:15;100519.00;;;12.11;76.06
54806;BME280;62866;55.776;37.496;2023-05-22T00:17:41;100510.59;;;12.14;75.87
54806;BME280;62866;55.776;37.496;2023-05-22T00:20:07;100523.91;;;12.23;76.31
54806;BME280;62866;55.776;37.496;2023-05-22T00:22:35;100517.72;;;12.22;75.64
54806;BME280;62866;55.776;37.496;2023-05-22T00:25:05;100526.16;;;12.19;76.02
54806;BME280;62866;55.776;37.496;2023-05-22T00:27:32;100537.31;;;12.23;75.99
54806;BME280;62866;55.776;37.496;2023-05-22T00:29:57;100515.38;;;12.04;76.05
54806;BME280;62866;55.776;37.496;2023-05-22T00:32:26;100524.00;;;12.14;76.09
54806;BME280;62866;55.776;37.496;2023-05-22T00:34:52;100507.28;;;12.12;76.49
54806;BME280;62866;55.776;37.496;2023-05-22T00:37:18;100524.75;;;12.23;76.47
54806;BME280;62866;55.776;37.496;2023-05-22T00:39:44;100520.41;;;12.22;76.46
54806;BME280;62866;55.776;37.496;2023-05-22T00:42:10;100514.94;;;12.15;76.41
54806;BME280;62866;55.776;37.496;2023-05-22T00:44:36;100517.78;;;12.14;76.61
54806;BME280;62866;55.776;37.496;2023-05-22T00:47:02;100501.16;;;12.04;76.51
54806;BME280;62866;55.776;37.496;2023-05-22T00:49:27;100516.50;;;12.10;76.63
54806;BME280;62866;55.776;37.496;2023-05-22T00:51:53;100517.34;;;12.10;76.80
54806;BME280;62866;55.776;37.496;2023-05-22T00:54:19;100535.09;;;12.11;77.08
54806;BME280;62866;55.776;37.496;2023-05-22T00:56:44;100522.38;;;12.05;76.81
54806;BME280;62866;55.776;37.496;2023-05-22T00:59:10;100515.75;;;12.01;76.80
54806;BME280;62866;55.776;37.496;2023-05-22T01:01:36;100505.38;;;11.98;76.95
54806;BME280;62866;55.776;37.496;2023-05-22T01:04:09;100520.44;;;11.99;77.33
54806;BME280;62866;55.776;37.496;2023-05-22T01:06:35;100525.78;;;11.99;76.74
54806;BME280;62866;55.776;37.496;2023-05-22T01:09:01;100518.75;;;11.98;76.99
54806;BME280;62866;55.776;37.496;2023-05-22T01:11:40;100520.44;;;11.99;77.40
54806;BME280;62866;55.776;37.496;2023-05-22T01:17:23;100514.16;;;12.07;77.31
54806;BME280;62866;55.776;37.496;2023-05-22T01:26:03;100510.47;;;12.08;77.23
54806;BME280;62866;55.776;37.496;2023-05-22T01:29:27;100487.50;;;11.91;77.20
54806;BME280;62866;55.776;37.496;2023-05-22T01:31:56;100508.19;;;12.05;76.79
54806;BME280;62866;55.776;37.496;2023-05-22T01:34:24;100511.16;;;12.10;77.11
54806;BME280;62866;55.776;37.496;2023-05-22T01:36:52;100517.16;;;12.12;77.03
54806;BME280;62866;55.776;37.496;2023-05-22T01:39:19;100510.47;;;12.08;77.13
54806;BME280;62866;55.776;37.496;2023-05-22T01:41:45;100511.16;;;12.10;77.03
54806;BME280;62866;55.776;37.496;2023-05-22T01:44:11;100510.31;;;12.09;77.13
54806;BME280;62866;55.776;37.496;2023-05-22T01:46:37;100520.19;;;12.09;77.31
54806;BME280;62866;55.776;37.496;2023-05-22T01:49:02;100517.69;;;12.07;77.58
54806;BME280;62866;55.776;37.496;2023-05-22T01:54:09;100525.19;;;12.12;78.02
54806;BME280;62866;55.776;37.496;2023-05-22T01:56:40;100515.66;;;12.09;77.75
54806;BME280;62866;55.776;37.496;2023-05-22T01:59:35;100525.19;;;12.12;77.85
54806;BME280;62866;55.776;37.496;2023-05-22T02:02:05;100517.50;;;12.09;77.80
54806;BME280;62866;55.776;37.496;2023-05-22T02:04:34;100511.72;;;11.97;78.15
54806;BME280;62866;55.776;37.496;2023-05-22T02:07:02;100520.59;;;11.98;77.91
54806;BME280;62866;55.776;37.496;2023-05-22T02:09:29;100515.25;;;11.98;78.06
54806;BME280;62866;55.776;37.496;2023-05-22T02:11:58;100516.91;;;11.99;78.26
54806;BME280;62866;55.776;37.496;2023-05-22T02:14:24;100518.31;;;11.95;78.39
54806;BME280;62866;55.776;37.496;2023-05-22T02:16:51;100509.13;;;11.89;78.07
54806;BME280;62866;55.776;37.496;2023-05-22T02:19:17;100515.31;;;11.90;78.35
54806;BME280;62866;55.776;37.496;2023-05-22T02:21:42;100504.97;;;11.87;78.07
54806;BME280;62866;55.776;37.496;2023-05-22T02:24:08;100501.16;;;11.81;78.38
54806;BME280;62866;55.776;37.496;2023-05-22T02:26:34;100501.53;;;11.78;78.26
54806;BME280;62866;55.776;37.496;2023-05-22T02:29:00;100511.69;;;11.83;78.55
54806;BME280;62866;55.776;37.496;2023-05-22T02:31:25;100514.25;;;11.76;78.95
54806;BME280;62866;55.776;37.496;2023-05-22T02:33:51;100530.81;;;11.80;79.17
54806;BME280;62866;55.776;37.496;2023-05-22T02:36:16;100512.59;;;11.75;79.25
54806;BME280;62866;55.776;37.496;2023-05-22T02:38:42;100526.09;;;11.82;79.44
54806;BME280;62866;55.776;37.496;2023-05-22T02:41:07;100533.50;;;11.80;79.75
54806;BME280;62866;55.776;37.496;2023-05-22T02:43:33;100535.81;;;11.83;79.39
54806;BME280;62866;55.776;37.496;2023-05-22T02:45:58;100529.78;;;11.81;79.38
54806;BME280;62866;55.776;37.496;2023-05-22T02:48:24;100551.81;;;11.91;79.31
54806;BME280;62866;55.776;37.496;2023-05-22T02:50:49;100530.88;;;11.94;79.21
54806;BME280;62866;55.776;37.496;2023-05-22T02:53:15;100529.66;;;11.97;78.06
54806;BME280;62866;55.776;37.496;2023-05-22T02:55:41;100539.97;;;12.08;77.17
54806;BME280;62866;55.776;37.496;2023-05-22T02:58:07;100530.66;;;12.19;76.59
54806;BME280;62866;55.776;37.496;2023-05-22T03:00:39;100535.06;;;12.34;75.66
54806;BME280;62866;55.776;37.496;2023-05-22T03:03:05;100547.66;;;12.48;74.12
54806;BME280;62866;55.776;37.496;2023-05-22T03:05:31;100538.41;;;12.51;73.96
54806;BME280;62866;55.776;37.496;2023-05-22T03:07:57;100539.72;;;12.70;72.88
54806;BME280;62866;55.776;37.496;2023-05-22T03:10:23;100550.28;;;12.86;72.50
54806;BME280;62866;55.776;37.496;2023-05-22T03:12:49;100548.16;;;12.96;71.79
54806;BME280;62866;55.776;37.496;2023-05-22T03:15:16;100541.56;;;12.99;71.03
54806;BME280;62866;55.776;37.496;2023-05-22T03:17:42;100532.25;;;12.95;70.40
54806;BME280;62866;55.776;37.496;2023-05-22T03:20:08;100547.50;;;13.09;70.65
54806;BME280;62866;55.776;37.496;2023-05-22T03:22:34;100529.38;;;13.11;70.29
54806;BME280;62866;55.776;37.496;2023-05-22T03:25:00;100545.47;;;13.25;69.43
54806;BME280;62866;55.776;37.496;2023-05-22T03:27:26;100537.06;;;13.28;69.25
54806;BME280;62866;55.776;37.496;2023-05-22T03:29:51;100548.13;;;13.40;69.04
54806;BME280;62866;55.776;37.496;2023-05-22T03:32:17;100539.41;;;13.53;69.09
54806;BME280;62866;55.776;37.496;2023-05-22T03:34:42;100538.34;;;13.68;68.95
54806;BME280;62866;55.776;37.496;2023-05-22T03:37:08;100525.16;;;13.74;68.09
54806;BME280;62866;55.776;37.496;2023-05-22T03:39:34;100537.44;;;13.83;67.90
54806;BME280;62866;55.776;37.496;2023-05-22T03:42:00;100531.25;;;13.82;67.66
54806;BME280;62866;55.776;37.496;2023-05-22T03:44:25;100531.69;;;13.86;67.44
54806;BME280;62866;55.776;37.496;2023-05-22T03:46:51;100532.78;;;13.91;67.33
54806;BME280;62866;55.776;37.496;2023-05-22T03:49:17;100534.78;;;14.04;66.93
54806;BME280;62866;55.776;37.496;2023-05-22T03:51:42;100524.44;;;14.07;66.48
54806;BME280;62866;55.776;37.496;2023-05-22T03:54:08;100518.19;;;14.22;66.36
54806;BME280;62866;55.776;37.496;2023-05-22T03:56:33;100523.16;;;14.46;65.91
54806;BME280;62866;55.776;37.496;2023-05-22T03:58:59;100526.09;;;14.51;65.74
54806;BME280;62866;55.776;37.496;2023-05-22T04:01:25;100532.16;;;14.60;65.36
54806;BME280;62866;55.776;37.496;2023-05-22T04:03:51;100537.34;;;14.61;64.79
54806;BME280;62866;55.776;37.496;2023-05-22T04:06:17;100534.84;;;14.60;64.83
54806;BME280;62866;55.776;37.496;2023-05-22T04:08:46;100539.38;;;14.59;64.92
54806;BME280;62866;55.776;37.496;2023-05-22T04:11:12;100552.44;;;14.56;64.84
54806;BME280;62866;55.776;37.496;2023-05-22T04:13:40;100532.31;;;14.52;64.62
54806;BME280;62866;55.776;37.496;2023-05-22T04:16:06;100535.19;;;14.50;64.66
54806;BME280;62866;55.776;37.496;2023-05-22T04:18:31;100539.66;;;14.64;64.74
54806;BME280;62866;55.776;37.496;2023-05-22T04:20:57;100542.19;;;14.72;64.74
54806;BME280;62866;55.776;37.496;2023-05-22T04:23:23;100546.31;;;14.75;64.63
54806;BME280;62866;55.776;37.496;2023-05-22T04:25:48;100550.47;;;14.71;64.78
54806;BME280;62866;55.776;37.496;2023-05-22T04:28:14;100537.88;;;14.50;65.11
54806;BME280;62866;55.776;37.496;2023-05-22T04:30:47;100546.09;;;14.42;65.87
54806;BME280;62866;55.776;37.496;2023-05-22T04:33:13;100554.91;;;14.36;66.49
54806;BME280;62866;55.776;37.496;2023-05-22T04:35:39;100546.97;;;14.28;66.91
54806;BME280;62866;55.776;37.496;2023-05-22T04:38:08;100546.66;;;14.16;67.89
54806;BME280;62866;55.776;37.496;2023-05-22T04:40:34;100541.47;;;14.15;68.13
54806;BME280;62866;55.776;37.496;2023-05-22T04:43:02;100537.75;;;14.16;68.72
54806;BME280;62866;55.776;37.496;2023-05-22T04:45:28;100541.94;;;14.18;69.18
54806;BME280;62866;55.776;37.496;2023-05-22T04:47:55;100546.22;;;14.13;69.31
54806;BME280;62866;55.776;37.496;2023-05-22T04:50:20;100544.94;;;14.09;69.85
54806;BME280;62866;55.776;37.496;2023-05-22T04:52:47;100550.38;;;14.15;70.01
54806;BME280;62866;55.776;37.496;2023-05-22T04:55:13;100537.16;;;14.14;70.69
54806;BME280;62866;55.776;37.496;2023-05-22T04:57:39;100552.75;;;14.25;70.79
54806;BME280;62866;55.776;37.496;2023-05-22T05:00:05;100524.44;;;14.07;70.87
54806;BME280;62866;55.776;37.496;2023-05-22T05:02:31;100549.81;;;14.20;71.42
54806;BME280;62866;55.776;37.496;2023-05-22T05:04:57;100538.31;;;14.04;72.42
54806;BME280;62866;55.776;37.496;2023-05-22T05:07:23;100551.28;;;14.01;72.66
54806;BME280;62866;55.776;37.496;2023-05-22T05:09:49;100564.84;;;13.93;73.99
54806;BME280;62866;55.776;37.496;2023-05-22T05:12:15;100546.66;;;13.74;74.30
54806;BME280;62866;55.776;37.496;2023-05-22T05:14:40;100559.84;;;13.68;75.81
54806;BME280;62866;55.776;37.496;2023-05-22T05:17:06;100552.84;;;13.53;76.47
54806;BME280;62866;55.776;37.496;2023-05-22T05:19:31;100565.19;;;13.47;77.69
54806;BME280;62866;55.776;37.496;2023-05-22T05:21:58;100569.44;;;13.42;78.35
54806;BME280;62866;55.776;37.496;2023-05-22T05:24:24;100557.88;;;13.26;79.20
54806;BME280;62866;55.776;37.496;2023-05-22T05:26:50;100575.31;;;13.31;79.41
54806;BME280;62866;55.776;37.496;2023-05-22T05:29:15;100569.81;;;13.24;80.28
54806;BME280;62866;55.776;37.496;2023-05-22T05:31:41;100566.03;;;13.18;80.96
54806;BME280;62866;55.776;37.496;2023-05-22T05:34:06;100566.41;;;13.15;82.81
54806;BME280;62866;55.776;37.496;2023-05-22T05:36:32;100532.59;;;12.91;83.73
54806;BME280;62866;55.776;37.496;2023-05-22T05:38:58;100561.28;;;13.06;84.85
54806;BME280;62866;55.776;37.496;2023-05-22T05:41:25;100553.97;;;13.00;85.88
54806;BME280;62866;55.776;37.496;2023-05-22T05:43:50;100558.81;;;13.04;86.97
54806;BME280;62866;55.776;37.496;2023-05-22T05:46:17;100568.47;;;13.13;86.33
54806;BME280;62866;55.776;37.496;2023-05-22T05:48:43;100576.47;;;12.99;85.63
54806;BME280;62866;55.776;37.496;2023-05-22T05:51:09;100561.66;;;12.73;87.35
54806;BME280;62866;55.776;37.496;2023-05-22T05:53:34;100575.06;;;12.73;88.30
54806;BME280;62866;55.776;37.496;2023-05-22T05:56:06;100570.00;;;12.78;89.30
54806;BME280;62866;55.776;37.496;2023-05-22T05:58:31;100576.28;;;12.85;90.04
54806;BME280;62866;55.776;37.496;2023-05-22T06:00:57;100579.81;;;12.86;88.82
54806;BME280;62866;55.776;37.496;2023-05-22T06:03:23;100591.94;;;12.97;90.01
54806;BME280;62866;55.776;37.496;2023-05-22T06:05:50;100597.13;;;12.98;89.11
54806;BME280;62866;55.776;37.496;2023-05-22T06:08:15;100586.47;;;12.90;89.21
54806;BME280;62866;55.776;37.496;2023-05-22T06:10:44;100584.00;;;12.88;89.38
54806;BME280;62866;55.776;37.496;2023-05-22T06:13:09;100551.94;;;12.72;90.22
54806;BME280;62866;55.776;37.496;2023-05-22T06:15:35;100579.06;;;12.92;90.93
54806;BME280;62866;55.776;37.496;2023-05-22T06:18:01;100571.09;;;12.84;91.09
54806;BME280;62866;55.776;37.496;2023-05-22T06:20:26;100577.78;;;12.88;91.12
54806;BME280;62866;55.776;37.496;2023-05-22T06:22:52;100586.75;;;12.95;92.64
54806;BME280;62866;55.776;37.496;2023-05-22T06:25:18;100584.66;;;13.05;92.36
54806;BME280;62866;55.776;37.496;2023-05-22T06:27:44;100574.81;;;12.98;92.54
54806;BME280;62866;55.776;37.496;2023-05-22T06:30:10;100573.78;;;12.99;92.96
54806;BME280;62866;55.776;37.496;2023-05-22T06:32:36;100582.22;;;13.10;93.89
54806;BME280;62866;55.776;37.496;2023-05-22T06:35:01;100558.34;;;13.01;93.45
54806;BME280;62866;55.776;37.496;2023-05-22T06:37:27;100572.13;;;12.98;92.50
54806;BME280;62866;55.776;37.496;2023-05-22T06:39:53;100588.44;;;12.96;93.09
54806;BME280;62866;55.776;37.496;2023-05-22T06:42:18;100583.78;;;12.90;93.64
54806;BME280;62866;55.776;37.496;2023-05-22T06:44:44;100573.63;;;12.85;94.24
54806;BME280;62866;55.776;37.496;2023-05-22T06:47:09;100572.78;;;12.85;94.26
54806;BME280;62866;55.776;37.496;2023-05-22T06:49:35;100568.25;;;12.71;95.01
54806;BME280;62866;55.776;37.496;2023-05-22T06:52:01;100567.84;;;12.74;95.44
54806;BME280;62866;55.776;37.496;2023-05-22T06:54:26;100552.22;;;12.77;95.24
54806;BME280;62866;55.776;37.496;2023-05-22T06:56:55;100551.47;;;12.83;95.30
54806;BME280;62866;55.776;37.496;2023-05-22T06:59:21;100531.28;;;12.73;95.99
54806;BME280;62866;55.776;37.496;2023-05-22T07:01:46;100572.78;;;13.00;95.97
54806;BME280;62866;55.776;37.496;2023-05-22T07:04:12;100588.53;;;13.03;95.92
54806;BME280;62866;55.776;37.496;2023-05-22T07:06:39;100571.94;;;12.99;96.33
54806;BME280;62866;55.776;37.496;2023-05-22T07:09:06;100559.47;;;13.21;96.55
54806;BME280;62866;55.776;37.496;2023-05-22T07:11:32;100559.19;;;13.31;95.54
54806;BME280;62866;55.776;37.496;2023-05-22T07:14:00;100531.13;;;13.18;95.21
54806;BME280;62866;55.776;37.496;2023-05-22T07:16:26;100553.16;;;13.28;95.21
54806;BME280;62866;55.776;37.496;2023-05-22T07:18:52;100552.31;;;13.43;96.00
54806;BME280;62866;55.776;37.496;2023-05-22T07:21:17;100542.66;;;13.48;96.69
54806;BME280;62866;55.776;37.496;2023-05-22T07:23:43;100542.22;;;13.66;96.79
54806;BME280;62866;55.776;37.496;2023-05-22T07:26:08;100561.03;;;13.66;95.40
54806;BME280;62866;55.776;37.496;2023-05-22T07:28:34;100587.97;;;13.51;95.48
54806;BME280;62866;55.776;37.496;2023-05-22T07:30:59;100612.41;;;13.42;95.73
54806;BME280;62866;55.776;37.496;2023-05-22T07:33:25;100601.03;;;13.40;96.65
54806;BME280;62866;55.776;37.496;2023-05-22T07:35:51;100565.59;;;13.29;97.31
54806;BME280;62866;55.776;37.496;2023-05-22T07:38:17;100562.78;;;13.38;96.95
54806;BME280;62866;55.776;37.496;2023-05-22T07:40:42;100547.31;;;13.25;97.01
54806;BME280;62866;55.776;37.496;2023-05-22T07:43:08;100559.72;;;13.41;96.73
54806;BME280;62866;55.776;37.496;2023-05-22T07:45:34;100573.44;;;13.31;97.28
54806;BME280;62866;55.776;37.496;2023-05-22T07:47:59;100585.63;;;13.48;97.80
54806;BME280;62866;55.776;37.496;2023-05-22T07:50:27;100575.31;;;13.66;98.01
54806;BME280;62866;55.776;37.496;2023-05-22T07:52:54;100578.41;;;13.85;98.55
54806;BME280;62866;55.776;37.496;2023-05-22T07:55:20;100586.25;;;14.01;98.49
54806;BME280;62866;55.776;37.496;2023-05-22T07:57:45;100589.28;;;13.98;98.23
54806;BME280;62866;55.776;37.496;2023-05-22T08:00:12;100592.69;;;14.06;98.06
54806;BME280;62866;55.776;37.496;2023-05-22T08:02:42;100554.69;;;14.10;97.99
54806;BME280;62866;55.776;37.496;2023-05-22T08:05:08;100570.03;;;14.37;97.80
54806;BME280;62866;55.776;37.496;2023-05-22T08:07:34;100574.75;;;14.56;96.90
54806;BME280;62866;55.776;37.496;2023-05-22T08:10:03;100578.25;;;14.78;96.81
54806;BME280;62866;55.776;37.496;2023-05-22T08:12:29;100579.16;;;14.92;96.37
54806;BME280;62866;55.776;37.496;2023-05-22T08:14:54;100594.66;;;14.90;96.22
54806;BME280;62866;55.776;37.496;2023-05-22T08:17:20;100599.25;;;14.89;96.32
54806;BME280;62866;55.776;37.496;2023-05-22T08:19:45;100592.38;;;14.87;96.21
54806;BME280;62866;55.776;37.496;2023-05-22T08:22:11;100574.88;;;14.69;96.25
54806;BME280;62866;55.776;37.496;2023-05-22T08:24:36;100602.84;;;14.75;96.41
54806;BME280;62866;55.776;37.496;2023-05-22T08:27:03;100601.88;;;14.82;96.42
54806;BME280;62866;55.776;37.496;2023-05-22T08:29:28;100592.03;;;14.96;96.14
54806;BME280;62866;55.776;37.496;2023-05-22T08:31:54;100594.44;;;15.19;96.24
54806;BME280;62866;55.776;37.496;2023-05-22T08:34:21;100585.25;;;15.07;96.27
54806;BME280;62866;55.776;37.496;2023-05-22T08:36:47;100592.91;;;15.03;95.66
54806;BME280;62866;55.776;37.496;2023-05-22T08:39:14;100569.06;;;15.00;95.46
54806;BME280;62866;55.776;37.496;2023-05-22T08:41:39;100589.53;;;15.29;95.69
54806;BME280;62866;55.776;37.496;2023-05-22T08:44:08;100586.03;;;15.35;95.78
54806;BME280;62866;55.776;37.496;2023-05-22T08:46:35;100577.97;;;15.42;95.65
54806;BME280;62866;55.776;37.496;2023-05-22T08:49:03;100577.38;;;15.46;95.71
54806;BME280;62866;55.776;37.496;2023-05-22T08:51:32;100570.81;;;15.55;95.86
54806;BME280;62866;55.776;37.496;2023-05-22T08:53:58;100589.94;;;15.67;95.82
54806;BME280;62866;55.776;37.496;2023-05-22T08:56:25;100549.28;;;15.69;95.32
54806;BME280;62866;55.776;37.496;2023-05-22T08:58:50;100546.00;;;15.80;95.31
54806;BME280;62866;55.776;37.496;2023-05-22T09:01:17;100574.47;;;15.96;94.83
54806;BME280;62866;55.776;37.496;2023-05-22T09:03:43;100576.97;;;15.97;95.08
54806;BME280;62866;55.776;37.496;2023-05-22T09:06:10;100567.84;;;15.98;94.71
54806;BME280;62866;55.776;37.496;2023-05-22T09:08:37;100562.25;;;16.13;95.22
54806;BME280;62866;55.776;37.496;2023-05-22T09:11:03;100530.66;;;15.87;94.89
54806;BME280;62866;55.776;37.496;2023-05-22T09:13:30;100557.66;;;16.00;94.93
54806;BME280;62866;55.776;37.496;2023-05-22T09:16:06;100552.06;;;16.08;95.20
54806;BME280;62866;55.776;37.496;2023-05-22T09:18:32;100565.97;;;16.18;95.34
54806;BME280;62866;55.776;37.496;2023-05-22T09:20:58;100582.81;;;16.20;95.72
54806;BME280;62866;55.776;37.496;2023-05-22T09:23:26;100570.16;;;16.21;95.89
54806;BME280;62866;55.776;37.496;2023-05-22T09:26:00;100580.72;;;16.29;95.43
54806;BME280;62866;55.776;37.496;2023-05-22T09:28:25;100576.38;;;16.28;95.34
54806;BME280;62866;55.776;37.496;2023-05-22T09:30:53;100581.13;;;16.19;95.01
54806;BME280;62866;55.776;37.496;2023-05-22T09:33:20;100562.25;;;16.13;94.95
54806;BME280;62866;55.776;37.496;2023-05-22T09:35:47;100548.56;;;16.21;94.98
54806;BME280;62866;55.776;37.496;2023-05-22T09:38:14;100565.56;;;16.35;94.90
54806;BME280;62866;55.776;37.496;2023-05-22T09:40:40;100545.03;;;16.33;94.69
54806;BME280;62866;55.776;37.496;2023-05-22T09:43:09;100558.72;;;16.58;94.26
54806;BME280;62866;55.776;37.496;2023-05-22T09:45:36;100562.09;;;16.74;94.53
54806;BME280;62866;55.776;37.496;2023-05-22T09:48:07;100556.84;;;16.98;94.43
54806;BME280;62866;55.776;37.496;2023-05-22T09:50:32;100546.25;;;16.97;93.32
54806;BME280;62866;55.776;37.496;2023-05-22T09:53:01;100554.72;;;17.14;93.44
54806;BME280;62866;55.776;37.496;2023-05-22T09:55:30;100554.69;;;17.20;93.50
54806;BME280;62866;55.776;37.496;2023-05-22T09:57:57;100555.69;;;17.26;93.45
54806;BME280;62866;55.776;37.496;2023-05-22T10:00:27;100552.34;;;17.37;93.18
54806;BME280;62866;55.776;37.496;2023-05-22T10:03:07;100552.50;;;17.49;93.14
54806;BME280;62866;55.776;37.496;2023-05-22T10:05:34;100548.72;;;17.56;92.69
54806;BME280;62866;55.776;37.496;2023-05-22T10:08:09;100541.22;;;17.65;92.42
54806;BME280;62866;55.776;37.496;2023-05-22T10:10:36;100551.28;;;17.82;91.90
54806;BME280;62866;55.776;37.496;2023-05-22T10:13:03;100544.47;;;17.80;91.16
54806;BME280;62866;55.776;37.496;2023-05-22T10:15:29;100543.16;;;17.89;91.19
54806;BME280;62866;55.776;37.496;2023-05-22T10:17:57;100537.75;;;17.89;90.88
54806;BME280;62866;55.776;37.496;2023-05-22T10:20:24;100542.91;;;17.97;90.81
54806;BME280;62866;55.776;37.496;2023-05-22T10:22:52;100537.44;;;18.04;90.06
54806;BME280;62866;55.776;37.496;2023-05-22T10:25:18;100529.09;;;18.05;88.50
54806;BME280;62866;55.776;37.496;2023-05-22T10:27:47;100537.22;;;18.05;86.65
54806;BME280;62866;55.776;37.496;2023-05-22T10:30:30;100536.34;;;18.11;87.70
54806;BME280;62866;55.776;37.496;2023-05-22T10:38:51;100553.97;;;17.89;82.73
54806;BME280;62866;55.776;37.496;2023-05-22T10:41:18;100532.03;;;17.72;84.58
54806;BME280;62866;55.776;37.496;2023-05-22T10:43:47;100533.06;;;17.71;84.38
54806;BME280;62866;55.776;37.496;2023-05-22T10:46:13;100529.91;;;17.74;84.32
54806;BME280;62866;55.776;37.496;2023-05-22T10:48:42;100531.16;;;17.78;82.31
54806;BME280;62866;55.776;37.496;2023-05-22T10:51:11;100524.13;;;17.71;82.59
54806;BME280;62866;55.776;37.496;2023-05-22T10:53:37;100532.22;;;17.71;82.32
54806;BME280;62866;55.776;37.496;2023-05-22T10:56:14;100517.25;;;17.68;83.32
54806;BME280;62866;55.776;37.496;2023-05-22T10:58:45;100529.00;;;17.87;82.39
54806;BME280;62866;55.776;37.496;2023-05-22T11:01:20;100513.91;;;18.04;82.53
54806;BME280;62866;55.776;37.496;2023-05-22T11:14:53;100517.03;;;18.33;77.22
54806;BME280;62866;55.776;37.496;2023-05-22T11:17:29;100509.13;;;18.31;76.88
54806;BME280;62866;55.776;37.496;2023-05-22T11:22:29;100496.34;;;18.38;75.57
54806;BME280;62866;55.776;37.496;2023-05-22T11:24:54;100500.03;;;18.44;76.30
54806;BME280;62866;55.776;37.496;2023-05-22T11:27:20;100502.41;;;18.58;75.90
54806;BME280;62866;55.776;37.496;2023-05-22T11:29:46;100490.31;;;18.61;75.46
54806;BME280;62866;55.776;37.496;2023-05-22T11:32:12;100481.16;;;18.62;74.97
54806;BME280;62866;55.776;37.496;2023-05-22T11:34:45;100498.91;;;18.76;75.23
54806;BME280;62866;55.776;37.496;2023-05-22T11:37:11;100496.13;;;18.65;75.30
54806;BME280;62866;55.776;37.496;2023-05-22T11:39:36;100499.13;;;18.56;76.07
54806;BME280;62866;55.776;37.496;2023-05-22T11:42:02;100495.78;;;18.54;76.04
54806;BME280;62866;55.776;37.496;2023-05-22T11:44:29;100496.97;;;18.65;76.40
54806;BME280;62866;55.776;37.496;2023-05-22T11:46:58;100473.72;;;18.58;76.82
54806;BME280;62866;55.776;37.496;2023-05-22T11:49:23;100463.72;;;18.51;76.99
54806;BME280;62866;55.776;37.496;2023-05-22T11:51:49;100488.28;;;18.56;76.59
54806;BME280;62866;55.776;37.496;2023-05-22T11:54:19;100495.78;;;18.54;77.41
54806;BME280;62866;55.776;37.496;2023-05-22T11:56:45;100473.72;;;18.58;77.37
54806;BME280;62866;55.776;37.496;2023-05-22T11:59:10;100456.50;;;18.45;75.39
54806;BME280;62866;55.776;37.496;2023-05-22T12:01:36;100471.69;;;18.46;75.46
54806;BME280;62866;55.776;37.496;2023-05-22T12:04:03;100476.72;;;18.43;76.35
54806;BME280;62866;55.776;37.496;2023-05-22T12:06:29;100464.28;;;18.35;76.70
54806;BME280;62866;55.776;37.496;2023-05-22T12:08:59;100473.44;;;18.41;77.28
54806;BME280;62866;55.776;37.496;2023-05-22T12:11:25;100471.16;;;18.38;77.85
54806;BME280;62866;55.776;37.496;2023-05-22T12:14:04;100468.72;;;18.30;76.82
54806;BME280;62866;55.776;37.496;2023-05-22T12:16:34;100476.78;;;18.36;78.01
54806;BME280;62866;55.776;37.496;2023-05-22T12:19:07;100465.31;;;18.41;77.29
54806;BME280;62866;55.776;37.496;2023-05-22T12:21:33;100460.19;;;18.51;77.77
54806;BME280;62866;55.776;37.496;2023-05-22T12:24:03;100462.94;;;18.69;77.50
54806;BME280;62866;55.776;37.496;2023-05-22T12:26:30;100449.56;;;18.74;77.07
54806;BME280;62866;55.776;37.496;2023-05-22T12:28:57;100450.88;;;18.83;77.48
54806;BME280;62866;55.776;37.496;2023-05-22T12:31:22;100459.94;;;18.95;76.85
54806;BME280;62866;55.776;37.496;2023-05-22T12:33:51;100426.50;;;18.83;77.65
54806;BME280;62866;55.776;37.496;2023-05-22T12:36:17;100439.47;;;19.00;77.29
54806;BME280;62866;55.776;37.496;2023-05-22T12:38:42;100437.19;;;18.97;77.82
54806;BME280;62866;55.776;37.496;2023-05-22T12:41:08;100439.31;;;18.94;77.27
54806;BME280;62866;55.776;37.496;2023-05-22T12:43:34;100431.03;;;18.89;77.46
54806;BME280;62866;55.776;37.496;2023-05-22T12:45:59;100423.75;;;18.90;77.08
54806;BME280;62866;55.776;37.496;2023-05-22T12:48:25;100411.69;;;18.86;77.35
54806;BME280;62866;55.776;37.496;2023-05-22T12:50:51;100428.38;;;19.01;77.92
54806;BME280;62866;55.776;37.496;2023-05-22T12:53:17;100417.69;;;19.06;77.74
54806;BME280;62866;55.776;37.496;2023-05-22T12:55:43;100394.81;;;19.02;77.80
54806;BME280;62866;55.776;37.496;2023-05-22T12:58:09;100416.06;;;19.17;77.53
54806;BME280;62866;55.776;37.496;2023-05-22T13:00:34;100413.53;;;19.22;78.61
54806;BME280;62866;55.776;37.496;2023-05-22T13:03:00;100414.69;;;19.26;77.18
54806;BME280;62866;55.776;37.496;2023-05-22T13:05:27;100415.31;;;19.28;77.61
54806;BME280;62866;55.776;37.496;2023-05-22T13:07:52;100383.31;;;19.18;76.83
54806;BME280;62866;55.776;37.496;2023-05-22T13:10:18;100407.06;;;19.34;76.65